sensor_id;sensor_type;location;lat;lon;timestamp;pressure;altitude;pressure_sealevel;temperature;humidity
16100;BME280;8154;50.830;12.082;2023-03-16T00:01:06;99955.47;;;23.10;36.87
16100;BME280;8154;50.830;12.082;2023-03-16T00:03:33;99950.69;;;23.06;37.18
16100;BME280;8154;50.830;12.082;2023-03-16T00:05:59;99955.72;;;23.01;36.93
16100;BME280;8154;50.830;12.082;2023-03-16T00:08:25;99949.59;;;23.00;37.01
16100;BME280;8154;50.830;12.082;2023-03-16T00:10:52;99955.16;;;22.91;37.36
16100;BME280;8154;50.830;12.082;2023-03-16T00:13:20;99946.13;;;22.92;37.04
16100;BME280;8154;50.830;12.082;2023-03-16T00:15:55;99943.94;;;22.95;37.20
16100;BME280;8154;50.830;12.082;2023-03-16T00:18:23;99947.78;;;22.93;37.05
16100;BME280;8154;50.830;12.082;2023-03-16T00:20:53;99949.34;;;22.87;37.25
16100;BME280;8154;50.830;12.082;2023-03-16T00:23:21;99952.38;;;22.84;37.37
16100;BME280;8154;50.830;12.082;2023-03-16T00:25:58;99946.97;;;22.92;37.17
16100;BME280;8154;50.830;12.082;2023-03-16T00:28:25;99948.44;;;22.95;36.73
16100;BME280;8154;50.830;12.082;2023-03-16T00:30:52;99958.56;;;22.99;36.81
16100;BME280;8154;50.830;12.082;2023-03-16T00:33:24;99956.56;;;23.01;36.69
16100;BME280;8154;50.830;12.082;2023-03-16T00:35:50;99961.22;;;22.99;36.66
16100;BME280;8154;50.830;12.082;2023-03-16T00:38:31;99963.72;;;23.01;36.71
16100;BME280;8154;50.830;12.082;2023-03-16T00:41:00;99956.09;;;22.98;36.68
16100;BME280;8154;50.830;12.082;2023-03-16T00:43:30;99957.56;;;23.00;36.70
16100;BME280;8154;50.830;12.082;2023-03-16T00:45:59;99967.09;;;22.95;36.53
16100;BME280;8154;50.830;12.082;2023-03-16T00:48:32;99970.78;;;22.94;36.69
16100;BME280;8154;50.830;12.082;2023-03-16T00:51:04;99961.28;;;22.91;36.54
16100;BME280;8154;50.830;12.082;2023-03-16T00:53:35;99967.66;;;22.90;36.38
16100;BME280;8154;50.830;12.082;2023-03-16T00:56:02;99966.28;;;22.94;36.50
16100;BME280;8154;50.830;12.082;2023-03-16T00:58:32;99968.13;;;22.94;36.27
16100;BME280;8154;50.830;12.082;2023-03-16T01:01:06;99971.63;;;22.94;36.17
16100;BME280;8154;50.830;12.082;2023-03-16T01:03:42;99968.41;;;22.99;36.12
16100;BME280;8154;50.830;12.082;2023-03-16T01:06:16;99975.47;;;22.92;36.46
16100;BME280;8154;50.830;12.082;2023-03-16T01:08:45;99973.16;;;22.89;36.41
16100;BME280;8154;50.830;12.082;2023-03-16T01:11:15;99973.34;;;22.87;36.28
16100;BME280;8154;50.830;12.082;2023-03-16T01:13:46;99965.34;;;22.87;36.11
16100;BME280;8154;50.830;12.082;2023-03-16T01:16:13;99960.38;;;22.84;36.37
16100;BME280;8154;50.830;12.082;2023-03-16T01:18:50;99963.50;;;22.88;36.01
16100;BME280;8154;50.830;12.082;2023-03-16T01:21:20;99960.50;;;22.91;36.04
16100;BME280;8154;50.830;12.082;2023-03-16T01:23:49;99967.47;;;22.92;35.84
16100;BME280;8154;50.830;12.082;2023-03-16T01:26:16;99964.81;;;22.92;35.97
16100;BME280;8154;50.830;12.082;2023-03-16T01:28:44;99961.47;;;22.90;35.87
16100;BME280;8154;50.830;12.082;2023-03-16T01:31:15;99966.63;;;22.91;35.96
16100;BME280;8154;50.830;12.082;2023-03-16T01:33:44;99959.66;;;22.90;35.76
16100;BME280;8154;50.830;12.082;2023-03-16T01:36:17;99964.97;;;22.90;35.79
16100;BME280;8154;50.830;12.082;2023-03-16T01:38:46;99961.13;;;22.93;35.81
16100;BME280;8154;50.830;12.082;2023-03-16T01:41:16;99969.03;;;23.01;35.54
16100;BME280;8154;50.830;12.082;2023-03-16T01:43:44;99963.34;;;23.04;35.47
16100;BME280;8154;50.830;12.082;2023-03-16T01:46:22;99974.69;;;23.06;35.31
16100;BME280;8154;50.830;12.082;2023-03-16T01:49:10;99968.16;;;23.08;35.46
16100;BME280;8154;50.830;12.082;2023-03-16T01:54:30;99956.56;;;23.01;35.23
16100;BME280;8154;50.830;12.082;2023-03-16T01:59:55;99956.66;;;23.08;35.38
16100;BME280;8154;50.830;12.082;2023-03-16T02:02:26;99954.63;;;23.10;34.98
16100;BME280;8154;50.830;12.082;2023-03-16T02:05:22;99954.53;;;23.26;35.00
16100;BME280;8154;50.830;12.082;2023-03-16T02:07:51;99946.34;;;23.27;34.91
16100;BME280;8154;50.830;12.082;2023-03-16T02:10:25;99943.16;;;23.24;34.62
16100;BME280;8154;50.830;12.082;2023-03-16T02:12:55;99942.66;;;23.28;34.74
16100;BME280;8154;50.830;12.082;2023-03-16T02:15:30;99938.84;;;23.23;34.76
16100;BME280;8154;50.830;12.082;2023-03-16T02:17:57;99944.56;;;23.20;34.92
16100;BME280;8154;50.830;12.082;2023-03-16T02:21:06;99945.69;;;23.25;34.69
16100;BME280;8154;50.830;12.082;2023-03-16T02:23:56;99947.91;;;23.36;34.50
16100;BME280;8154;50.830;12.082;2023-03-16T02:29:13;99953.06;;;23.38;34.60
16100;BME280;8154;50.830;12.082;2023-03-16T02:31:46;99959.69;;;23.42;34.25
16100;BME280;8154;50.830;12.082;2023-03-16T02:34:16;99956.47;;;23.46;34.24
16100;BME280;8154;50.830;12.082;2023-03-16T02:36:45;99963.09;;;23.50;34.27
16100;BME280;8154;50.830;12.082;2023-03-16T02:39:23;99952.31;;;23.44;34.40
16100;BME280;8154;50.830;12.082;2023-03-16T02:42:00;99961.53;;;23.41;34.32
16100;BME280;8154;50.830;12.082;2023-03-16T02:44:49;99945.81;;;23.46;34.13
16100;BME280;8154;50.830;12.082;2023-03-16T02:47:39;99950.59;;;23.51;34.06
16100;BME280;8154;50.830;12.082;2023-03-16T02:50:26;99955.16;;;23.42;34.40
16100;BME280;8154;50.830;12.082;2023-03-16T02:52:57;99955.81;;;23.44;34.31
16100;BME280;8154;50.830;12.082;2023-03-16T02:55:26;99955.16;;;23.42;34.16
16100;BME280;8154;50.830;12.082;2023-03-16T02:57:53;99963.28;;;23.49;34.25
16100;BME280;8154;50.830;12.082;2023-03-16T03:00:20;99959.25;;;23.53;34.17
16100;BME280;8154;50.830;12.082;2023-03-16T03:02:47;99955.94;;;23.51;33.99
16100;BME280;8154;50.830;12.082;2023-03-16T03:05:14;99948.94;;;23.50;34.20
16100;BME280;8154;50.830;12.082;2023-03-16T03:07:40;99956.75;;;23.51;34.08
16100;BME280;8154;50.830;12.082;2023-03-16T03:10:07;99956.66;;;23.45;33.90
16100;BME280;8154;50.830;12.082;2023-03-16T03:12:33;99952.06;;;23.39;34.08
16100;BME280;8154;50.830;12.082;2023-03-16T03:14:59;99953.53;;;23.41;34.08
16100;BME280;8154;50.830;12.082;2023-03-16T03:17:25;99952.50;;;23.42;34.22
16100;BME280;8154;50.830;12.082;2023-03-16T03:19:56;99950.50;;;23.44;34.07
16100;BME280;8154;50.830;12.082;2023-03-16T03:22:24;99950.88;;;23.56;33.68
16100;BME280;8154;50.830;12.082;2023-03-16T03:24:51;99948.03;;;23.57;33.68
16100;BME280;8154;50.830;12.082;2023-03-16T03:27:18;99960.81;;;23.62;33.60
16100;BME280;8154;50.830;12.082;2023-03-16T04:18:41;99946.63;;;23.47;33.63
16100;BME280;8154;50.830;12.082;2023-03-16T04:21:13;99944.31;;;23.44;33.86
16100;BME280;8154;50.830;12.082;2023-03-16T04:23:41;99948.28;;;23.48;33.52
16100;BME280;8154;50.830;12.082;2023-03-16T04:26:07;99932.44;;;23.61;33.25
16100;BME280;8154;50.830;12.082;2023-03-16T04:28:33;99931.44;;;23.62;33.59
16100;BME280;8154;50.830;12.082;2023-03-16T04:31:05;99935.59;;;23.64;33.32
16100;BME280;8154;50.830;12.082;2023-03-16T04:33:33;99942.22;;;23.68;33.07
16100;BME280;8154;50.830;12.082;2023-03-16T04:36:00;99940.28;;;23.62;33.43
16100;BME280;8154;50.830;12.082;2023-03-16T04:38:30;99937.91;;;23.53;33.61
16100;BME280;8154;50.830;12.082;2023-03-16T04:40:59;99936.78;;;23.47;33.62
16100;BME280;8154;50.830;12.082;2023-03-16T04:43:26;99948.09;;;23.49;33.50
16100;BME280;8154;50.830;12.082;2023-03-16T04:45:53;99949.94;;;23.49;33.40
16100;BME280;8154;50.830;12.082;2023-03-16T04:48:19;99947.09;;;23.50;33.68
16100;BME280;8154;50.830;12.082;2023-03-16T04:50:48;99948.47;;;23.61;33.50
16100;BME280;8154;50.830;12.082;2023-03-16T04:53:15;99954.34;;;23.71;33.29
16100;BME280;8154;50.830;12.082;2023-03-16T04:55:43;99947.91;;;23.65;33.15
16100;BME280;8154;50.830;12.082;2023-03-16T04:58:09;99948.03;;;23.57;33.30
16100;BME280;8154;50.830;12.082;2023-03-16T05:00:35;99948.38;;;23.54;33.55
16100;BME280;8154;50.830;12.082;2023-03-16T05:03:01;99952.06;;;23.53;33.49
16100;BME280;8154;50.830;12.082;2023-03-16T05:05:29;99943.06;;;23.54;33.25
16100;BME280;8154;50.830;12.082;2023-03-16T05:07:55;99944.69;;;23.55;33.27
16100;BME280;8154;50.830;12.082;2023-03-16T05:10:22;99949.19;;;23.55;33.22
16100;BME280;8154;50.830;12.082;2023-03-16T05:12:48;99947.19;;;23.57;33.22
16100;BME280;8154;50.830;12.082;2023-03-16T05:15:14;99946.06;;;23.66;33.37
16100;BME280;8154;50.830;12.082;2023-03-16T05:17:41;99933.19;;;23.69;32.89
16100;BME280;8154;50.830;12.082;2023-03-16T05:20:09;99939.75;;;23.67;33.23
16100;BME280;8154;50.830;12.082;2023-03-16T05:22:43;99937.41;;;23.64;33.02
16100;BME280;8154;50.830;12.082;2023-03-16T05:25:10;99940.09;;;23.64;33.04
16100;BME280;8154;50.830;12.082;2023-03-16T05:27:46;99938.81;;;23.60;33.24
16100;BME280;8154;50.830;12.082;2023-03-16T05:30:14;99947.38;;;23.70;33.11
16100;BME280;8154;50.830;12.082;2023-03-16T05:32:44;99944.97;;;23.75;32.98
16100;BME280;8154;50.830;12.082;2023-03-16T05:35:11;99953.72;;;23.83;32.84
16100;BME280;8154;50.830;12.082;2023-03-16T05:37:40;99956.94;;;23.79;32.63
16100;BME280;8154;50.830;12.082;2023-03-16T05:40:09;99949.19;;;23.84;32.74
16100;BME280;8154;50.830;12.082;2023-03-16T05:42:38;99959.84;;;23.84;32.71
16100;BME280;8154;50.830;12.082;2023-03-16T05:45:05;99958.94;;;23.77;32.71
16100;BME280;8154;50.830;12.082;2023-03-16T05:47:32;99952.72;;;23.70;32.86
16100;BME280;8154;50.830;12.082;2023-03-16T05:49:58;99960.91;;;23.68;32.95
16100;BME280;8154;50.830;12.082;2023-03-16T05:52:24;99962.84;;;23.74;33.18
16100;BME280;8154;50.830;12.082;2023-03-16T05:54:50;99963.38;;;23.70;33.04
16100;BME280;8154;50.830;12.082;2023-03-16T05:57:16;99958.78;;;23.78;32.89
16100;BME280;8154;50.830;12.082;2023-03-16T05:59:42;99967.88;;;23.84;32.79
16100;BME280;8154;50.830;12.082;2023-03-16T06:02:09;99963.72;;;23.81;32.66
16100;BME280;8154;50.830;12.082;2023-03-16T06:04:35;99964.09;;;23.78;32.83
16100;BME280;8154;50.830;12.082;2023-03-16T06:07:02;99966.97;;;23.77;32.79
16100;BME280;8154;50.830;12.082;2023-03-16T06:09:28;99981.88;;;23.71;33.02
16100;BME280;8154;50.830;12.082;2023-03-16T06:11:54;99972.47;;;23.75;32.89
16100;BME280;8154;50.830;12.082;2023-03-16T06:14:20;99971.94;;;23.80;32.75
16100;BME280;8154;50.830;12.082;2023-03-16T06:16:46;99975.53;;;23.87;32.86
16100;BME280;8154;50.830;12.082;2023-03-16T06:19:12;99977.72;;;23.98;32.68
16100;BME280;8154;50.830;12.082;2023-03-16T06:21:38;99979.78;;;23.96;32.66
16100;BME280;8154;50.830;12.082;2023-03-16T06:24:05;99989.59;;;23.95;32.70
16100;BME280;8154;50.830;12.082;2023-03-16T06:26:32;99984.44;;;23.94;32.55
16100;BME280;8154;50.830;12.082;2023-03-16T06:28:58;99977.00;;;23.89;32.91
16100;BME280;8154;50.830;12.082;2023-03-16T06:31:26;99974.59;;;23.80;32.97
16100;BME280;8154;50.830;12.082;2023-03-16T06:33:54;99974.59;;;23.80;32.96
16100;BME280;8154;50.830;12.082;2023-03-16T06:36:21;99979.56;;;23.83;32.91
16100;BME280;8154;50.830;12.082;2023-03-16T06:38:48;99980.50;;;23.90;32.59
16100;BME280;8154;50.830;12.082;2023-03-16T06:41:14;99987.09;;;23.94;32.84
16100;BME280;8154;50.830;12.082;2023-03-16T06:43:41;99986.59;;;23.98;32.59
16100;BME280;8154;50.830;12.082;2023-03-16T06:46:07;99977.34;;;24.01;32.48
16100;BME280;8154;50.830;12.082;2023-03-16T06:48:33;99977.63;;;24.06;32.29
16100;BME280;8154;50.830;12.082;2023-03-16T06:51:00;99973.97;;;24.07;32.33
16100;BME280;8154;50.830;12.082;2023-03-16T06:53:26;99976.63;;;24.07;32.60
16100;BME280;8154;50.830;12.082;2023-03-16T06:55:52;99980.88;;;24.01;32.68
16100;BME280;8154;50.830;12.082;2023-03-16T06:58:19;99982.34;;;24.04;32.56
16100;BME280;8154;50.830;12.082;2023-03-16T07:00:45;99980.31;;;24.06;32.58
16100;BME280;8154;50.830;12.082;2023-03-16T07:03:11;99974.59;;;24.09;32.68
16100;BME280;8154;50.830;12.082;2023-03-16T07:05:38;99983.72;;;24.14;32.22
16100;BME280;8154;50.830;12.082;2023-03-16T07:08:04;99979.81;;;24.17;32.20
16100;BME280;8154;50.830;12.082;2023-03-16T07:10:31;99976.28;;;24.31;32.41
16100;BME280;8154;50.830;12.082;2023-03-16T07:12:57;99972.50;;;24.40;32.38
16100;BME280;8154;50.830;12.082;2023-03-16T07:15:23;99978.38;;;24.50;32.04
16100;BME280;8154;50.830;12.082;2023-03-16T07:17:51;99975.75;;;24.57;32.00
16100;BME280;8154;50.830;12.082;2023-03-16T07:20:18;99975.19;;;24.61;32.18
16100;BME280;8154;50.830;12.082;2023-03-16T07:22:44;99974.88;;;24.71;32.13
16100;BME280;8154;50.830;12.082;2023-03-16T07:25:10;99977.44;;;24.79;31.96
16100;BME280;8154;50.830;12.082;2023-03-16T07:27:38;99971.13;;;24.86;31.94
16100;BME280;8154;50.830;12.082;2023-03-16T12:39:31;99830.78;;;25.03;31.38
16100;BME280;8154;50.830;12.082;2023-03-16T12:42:25;99822.56;;;25.05;31.12
16100;BME280;8154;50.830;12.082;2023-03-16T12:45:15;99812.06;;;25.03;31.10
16100;BME280;8154;50.830;12.082;2023-03-16T12:50:24;99820.06;;;25.03;31.21
16100;BME280;8154;50.830;12.082;2023-03-16T12:52:53;99811.84;;;24.98;31.14
16100;BME280;8154;50.830;12.082;2023-03-16T12:55:39;99811.59;;;24.93;31.50
16100;BME280;8154;50.830;12.082;2023-03-16T12:58:09;99808.91;;;24.93;31.52
16100;BME280;8154;50.830;12.082;2023-03-16T13:00:39;99800.00;;;24.86;31.66
16100;BME280;8154;50.830;12.082;2023-03-16T13:03:18;99794.66;;;24.86;31.45
16100;BME280;8154;50.830;12.082;2023-03-16T13:05:50;99800.66;;;24.88;31.32
16100;BME280;8154;50.830;12.082;2023-03-16T13:08:18;99791.59;;;24.89;31.68
16100;BME280;8154;50.830;12.082;2023-03-16T13:11:06;99799.63;;;24.89;31.45
16100;BME280;8154;50.830;12.082;2023-03-16T13:13:48;99790.34;;;24.85;31.74
16100;BME280;8154;50.830;12.082;2023-03-16T13:16:32;99790.34;;;24.85;31.28
16100;BME280;8154;50.830;12.082;2023-03-16T13:19:25;99788.06;;;24.82;31.73
16100;BME280;8154;50.830;12.082;2023-03-16T13:22:04;99792.78;;;24.80;31.50
16100;BME280;8154;50.830;12.082;2023-03-16T13:24:37;99789.31;;;24.80;31.48
16100;BME280;8154;50.830;12.082;2023-03-16T13:27:14;99787.63;;;24.79;31.43
16100;BME280;8154;50.830;12.082;2023-03-16T13:29:55;99779.81;;;24.77;31.70
16100;BME280;8154;50.830;12.082;2023-03-16T13:32:23;99778.38;;;24.75;31.69
16100;BME280;8154;50.830;12.082;2023-03-16T13:34:52;99793.56;;;24.74;31.54
16100;BME280;8154;50.830;12.082;2023-03-16T13:37:30;99791.94;;;24.73;31.49
16100;BME280;8154;50.830;12.082;2023-03-16T13:40:01;99778.75;;;24.72;31.51
16100;BME280;8154;50.830;12.082;2023-03-16T13:42:30;99792.13;;;24.72;31.78
16100;BME280;8154;50.830;12.082;2023-03-16T13:45:05;99791.19;;;24.65;31.67
16100;BME280;8154;50.830;12.082;2023-03-16T13:47:32;99795.94;;;24.63;31.67
16100;BME280;8154;50.830;12.082;2023-03-16T13:49:59;99793.88;;;24.65;31.63
16100;BME280;8154;50.830;12.082;2023-03-16T13:52:33;99786.69;;;24.65;31.71
16100;BME280;8154;50.830;12.082;2023-03-16T13:55:02;99785.06;;;24.64;31.59
16100;BME280;8154;50.830;12.082;2023-03-16T13:57:35;99781.75;;;24.62;31.58
16100;BME280;8154;50.830;12.082;2023-03-16T14:00:20;99773.72;;;24.62;31.93
16100;BME280;8154;50.830;12.082;2023-03-16T14:07:50;99762.53;;;24.52;31.71
16100;BME280;8154;50.830;12.082;2023-03-16T14:10:17;99769.31;;;24.48;31.66
16100;BME280;8154;50.830;12.082;2023-03-16T14:12:54;99770.31;;;24.47;32.05
16100;BME280;8154;50.830;12.082;2023-03-16T14:15:23;99759.06;;;24.52;31.84
16100;BME280;8154;50.830;12.082;2023-03-16T14:17:52;99758.59;;;24.48;32.03
16100;BME280;8154;50.830;12.082;2023-03-16T14:20:20;99754.69;;;24.44;32.06
16100;BME280;8154;50.830;12.082;2023-03-16T14:22:51;99759.00;;;24.45;31.73
16100;BME280;8154;50.830;12.082;2023-03-16T14:25:24;99752.81;;;24.45;31.70
16100;BME280;8154;50.830;12.082;2023-03-16T14:28:00;99746.28;;;24.47;31.74
16100;BME280;8154;50.830;12.082;2023-03-16T15:28:57;99682.25;;;24.33;31.63
16100;BME280;8154;50.830;12.082;2023-03-16T15:31:24;99681.81;;;24.29;32.01
16100;BME280;8154;50.830;12.082;2023-03-16T15:33:51;99677.50;;;24.28;32.11
16100;BME280;8154;50.830;12.082;2023-03-16T15:36:18;99681.00;;;24.28;31.78
16100;BME280;8154;50.830;12.082;2023-03-16T15:38:48;99683.69;;;24.28;31.79
16100;BME280;8154;50.830;12.082;2023-03-16T15:41:15;99671.91;;;24.23;31.79
16100;BME280;8154;50.830;12.082;2023-03-16T15:43:41;99667.34;;;24.17;31.80
16100;BME280;8154;50.830;12.082;2023-03-16T15:46:08;99653.75;;;24.12;32.26
16100;BME280;8154;50.830;12.082;2023-03-16T15:48:35;99661.38;;;24.15;31.94
16100;BME280;8154;50.830;12.082;2023-03-16T15:51:30;99656.66;;;24.17;32.03
16100;BME280;8154;50.830;12.082;2023-03-16T15:53:59;99664.03;;;24.15;31.95
16100;BME280;8154;50.830;12.082;2023-03-16T15:56:29;99665.28;;;24.12;31.95
16100;BME280;8154;50.830;12.082;2023-03-16T15:59:01;99648.03;;;24.15;32.06
16100;BME280;8154;50.830;12.082;2023-03-16T16:01:31;99658.69;;;24.15;31.97
16100;BME280;8154;50.830;12.082;2023-03-16T16:04:03;99652.16;;;24.17;32.01
16100;BME280;8154;50.830;12.082;2023-03-16T16:06:29;99648.41;;;24.12;32.09
16100;BME280;8154;50.830;12.082;2023-03-16T16:08:56;99657.50;;;24.17;31.79
16100;BME280;8154;50.830;12.082;2023-03-16T16:11:26;99652.56;;;24.14;31.88
16100;BME280;8154;50.830;12.082;2023-03-16T16:13:54;99657.06;;;24.14;32.04
16100;BME280;8154;50.830;12.082;2023-03-16T16:16:21;99652.13;;;24.11;31.88
16100;BME280;8154;50.830;12.082;2023-03-16T16:18:48;99650.66;;;24.08;31.75
16100;BME280;8154;50.830;12.082;2023-03-16T16:21:23;99656.41;;;24.05;32.00
16100;BME280;8154;50.830;12.082;2023-03-16T16:23:50;99660.31;;;24.09;31.79
16100;BME280;8154;50.830;12.082;2023-03-16T16:26:33;99661.38;;;24.15;32.00
16100;BME280;8154;50.830;12.082;2023-03-16T16:29:14;99652.75;;;24.13;32.03
16100;BME280;8154;50.830;12.082;2023-03-16T16:31:42;99645.13;;;24.10;31.85
16100;BME280;8154;50.830;12.082;2023-03-16T16:34:16;99646.56;;;24.12;31.71
16100;BME280;8154;50.830;12.082;2023-03-16T16:36:43;99648.03;;;24.15;31.85
16100;BME280;8154;50.830;12.082;2023-03-16T16:39:09;99650.09;;;24.13;31.94
16100;BME280;8154;50.830;12.082;2023-03-16T16:41:36;99640.22;;;24.13;31.93
16100;BME280;8154;50.830;12.082;2023-03-16T16:44:03;99629.91;;;24.10;32.11
16100;BME280;8154;50.830;12.082;2023-03-16T16:46:39;99624.56;;;24.10;31.82
16100;BME280;8154;50.830;12.082;2023-03-16T16:51:41;99617.53;;;24.03;32.12
16100;BME280;8154;50.830;12.082;2023-03-16T16:54:16;99627.97;;;23.98;32.34
16100;BME280;8154;50.830;12.082;2023-03-16T16:56:43;99631.53;;;24.05;32.14
16100;BME280;8154;50.830;12.082;2023-03-16T17:01:46;99635.69;;;24.14;32.10
16100;BME280;8154;50.830;12.082;2023-03-16T17:04:18;99639.81;;;24.16;32.02
16100;BME280;8154;50.830;12.082;2023-03-16T17:06:45;99631.41;;;24.19;31.77
16100;BME280;8154;50.830;12.082;2023-03-16T17:09:11;99638.63;;;24.19;31.70
16100;BME280;8154;50.830;12.082;2023-03-16T17:11:40;99625.84;;;24.14;31.90
16100;BME280;8154;50.830;12.082;2023-03-16T17:14:07;99626.84;;;24.13;31.72
16100;BME280;8154;50.830;12.082;2023-03-16T17:16:35;99631.34;;;24.06;32.04
16100;BME280;8154;50.830;12.082;2023-03-16T17:19:02;99624.16;;;24.07;31.84
16100;BME280;8154;50.830;12.082;2023-03-16T17:21:29;99614.22;;;24.01;31.98
16100;BME280;8154;50.830;12.082;2023-03-16T17:23:56;99614.44;;;23.99;32.04
16100;BME280;8154;50.830;12.082;2023-03-16T17:26:34;99627.63;;;24.07;31.88
16100;BME280;8154;50.830;12.082;2023-03-16T18:06:18;99614.59;;;24.19;31.65
16100;BME280;8154;50.830;12.082;2023-03-16T18:30:14;99606.19;;;24.22;31.75
16100;BME280;8154;50.830;12.082;2023-03-16T18:32:40;99599.56;;;24.18;31.56
16100;BME280;8154;50.830;12.082;2023-03-16T18:35:17;99598.75;;;24.17;31.69
16100;BME280;8154;50.830;12.082;2023-03-16T18:37:44;99600.84;;;24.22;31.57
16100;BME280;8154;50.830;12.082;2023-03-16T18:40:12;99589.72;;;24.18;31.77
16100;BME280;8154;50.830;12.082;2023-03-16T18:42:39;99581.75;;;24.25;31.60
16100;BME280;8154;50.830;12.082;2023-03-16T18:45:08;99585.84;;;24.27;31.53
16100;BME280;8154;50.830;12.082;2023-03-16T18:47:34;99582.97;;;24.22;31.61
16100;BME280;8154;50.830;12.082;2023-03-16T18:50:00;99581.09;;;24.23;31.77
16100;BME280;8154;50.830;12.082;2023-03-16T18:52:30;99579.88;;;24.19;31.76
16100;BME280;8154;50.830;12.082;2023-03-16T18:54:57;99592.47;;;24.32;31.55
16100;BME280;8154;50.830;12.082;2023-03-16T18:57:27;99591.84;;;24.29;31.51
16100;BME280;8154;50.830;12.082;2023-03-16T18:59:54;99598.81;;;24.24;31.72
16100;BME280;8154;50.830;12.082;2023-03-16T19:02:27;99590.53;;;24.19;31.62
16100;BME280;8154;50.830;12.082;2023-03-16T19:04:55;99590.53;;;24.19;31.53
16100;BME280;8154;50.830;12.082;2023-03-16T19:07:34;99587.25;;;24.17;31.79
16100;BME280;8154;50.830;12.082;2023-03-16T19:10:15;99594.03;;;24.19;31.63
16100;BME280;8154;50.830;12.082;2023-03-16T19:12:43;99591.16;;;24.21;31.47
16100;BME280;8154;50.830;12.082;2023-03-16T19:17:47;99592.63;;;24.23;31.59
16100;BME280;8154;50.830;12.082;2023-03-16T19:20:16;99589.72;;;24.18;31.50
16100;BME280;8154;50.830;12.082;2023-03-16T19:22:43;99598.41;;;24.27;31.54
16100;BME280;8154;50.830;12.082;2023-03-16T19:25:22;99595.50;;;24.22;31.61
16100;BME280;8154;50.830;12.082;2023-03-16T19:27:50;99597.31;;;24.21;31.56
16100;BME280;8154;50.830;12.082;2023-03-16T21:29:55;99540.03;;;24.24;31.45
16100;BME280;8154;50.830;12.082;2023-03-16T21:32:24;99543.06;;;24.14;31.42
16100;BME280;8154;50.830;12.082;2023-03-16T21:34:51;99527.84;;;24.15;31.44
16100;BME280;8154;50.830;12.082;2023-03-16T21:37:19;99529.31;;;24.17;31.61
16100;BME280;8154;50.830;12.082;2023-03-16T21:39:47;99522.34;;;24.23;31.13
16100;BME280;8154;50.830;12.082;2023-03-16T21:42:13;99519.28;;;24.26;31.34
16100;BME280;8154;50.830;12.082;2023-03-16T21:44:42;99510.88;;;24.22;31.51
16100;BME280;8154;50.830;12.082;2023-03-16T21:47:22;99511.22;;;24.19;31.28
16100;BME280;8154;50.830;12.082;2023-03-16T21:49:52;99516.16;;;24.16;31.64
16100;BME280;8154;50.830;12.082;2023-03-16T21:52:24;99509.63;;;24.25;31.45
16100;BME280;8154;50.830;12.082;2023-03-16T21:54:51;99513.34;;;24.24;31.38
16100;BME280;8154;50.830;12.082;2023-03-16T21:57:18;99499.75;;;24.19;31.30
16100;BME280;8154;50.830;12.082;2023-03-16T21:59:46;99506.53;;;24.21;31.46
16100;BME280;8154;50.830;12.082;2023-03-16T22:02:21;99502.44;;;24.25;31.29
16100;BME280;8154;50.830;12.082;2023-03-16T22:04:48;99501.00;;;24.29;31.39
16100;BME280;8154;50.830;12.082;2023-03-16T22:07:34;99503.88;;;24.28;31.27
16100;BME280;8154;50.830;12.082;2023-03-16T22:10:01;99501.41;;;24.26;31.34
16100;BME280;8154;50.830;12.082;2023-03-16T22:12:27;99510.44;;;24.19;31.60
16100;BME280;8154;50.830;12.082;2023-03-16T22:14:53;99508.94;;;24.10;31.57
16100;BME280;8154;50.830;12.082;2023-03-16T22:17:20;99515.28;;;24.09;31.63
16100;BME280;8154;50.830;12.082;2023-03-16T22:19:47;99501.78;;;24.17;31.53
16100;BME280;8154;50.830;12.082;2023-03-16T22:22:14;99511.69;;;24.29;31.41
16100;BME280;8154;50.830;12.082;2023-03-16T22:24:41;99512.53;;;24.30;31.03
16100;BME280;8154;50.830;12.082;2023-03-16T22:27:20;99502.66;;;24.24;31.24
16100;BME280;8154;50.830;12.082;2023-03-16T22:29:47;99497.09;;;24.25;31.16
16100;BME280;8154;50.830;12.082;2023-03-16T23:30:56;99424.72;;;24.07;31.48
16100;BME280;8154;50.830;12.082;2023-03-16T23:33:22;99424.88;;;23.99;31.46
16100;BME280;8154;50.830;12.082;2023-03-16T23:35:48;99422.63;;;23.96;31.82
16100;BME280;8154;50.830;12.082;2023-03-16T23:38:15;99421.75;;;23.89;31.69
16100;BME280;8154;50.830;12.082;2023-03-16T23:40:41;99415.16;;;23.92;31.76
16100;BME280;8154;50.830;12.082;2023-03-16T23:43:09;99415.47;;;24.03;31.66
16100;BME280;8154;50.830;12.082;2023-03-16T23:45:44;99405.22;;;24.07;31.41
16100;BME280;8154;50.830;12.082;2023-03-16T23:48:16;99413.22;;;24.07;31.60
16100;BME280;8154;50.830;12.082;2023-03-16T23:50:46;99409.94;;;24.05;31.30
16100;BME280;8154;50.830;12.082;2023-03-16T23:53:17;99403.13;;;24.02;31.60
16100;BME280;8154;50.830;12.082;2023-03-16T23:55:44;99411.13;;;24.02;31.39
16100;BME280;8154;50.830;12.082;2023-03-16T23:58:13;99415.44;;;23.97;31.63
